Time;durP1;ratioP1;P1;durP2;ratioP2;P2;SDS_P1;SDS_P2;PMS_P1;PMS_P2;Temp;Humidity;BMP_temperature;BMP_pressure;BME280_temperature;BME280_humidity;BME280_pressure;Samples;Min_cycle;Max_cycle;Signal;HPM_P1;HPM_P2
2022/08/19 00:00:50;;;;;;;1.63;1.40;;;;;;;22.69;53.49;96342.00;10316264;28;20390;-29
2022/08/19 00:05:50;;;;;;;1.63;1.53;;;;;;;22.59;53.69;96336.28;10324425;28;20523;-29
2022/08/19 00:10:50;;;;;;;1.70;1.60;;;;;;;22.56;53.63;96340.59;10319820;28;20480;-28
2022/08/19 00:15:51;;;;;;;1.30;1.20;;;;;;;22.54;53.66;96338.06;10320593;28;20038;-31
2022/08/19 00:20:52;;;;;;;1.35;1.23;;;;;;;22.50;53.67;96323.69;10323350;28;20037;-28
2022/08/19 00:25:52;;;;;;;1.33;1.23;;;;;;;22.51;53.94;96330.50;10320135;28;20370;-29
2022/08/19 00:30:53;;;;;;;1.30;1.20;;;;;;;22.51;53.72;96339.84;10320197;28;20038;-28
2022/08/19 00:35:55;;;;;;;2.13;1.50;;;;;;;22.64;53.89;96331.88;10323559;28;20046;-29
2022/08/19 00:40:56;;;;;;;1.98;1.80;;;;;;;22.78;53.81;96339.22;10323000;28;20042;-29
2022/08/19 00:45:56;;;;;;;1.48;1.30;;;;;;;22.57;53.54;96315.03;10325377;28;20106;-30
2022/08/19 00:50:57;;;;;;;1.42;1.33;;;;;;;22.60;53.65;96326.88;10331300;28;20630;-28
2022/08/19 00:56:00;;;;;;;1.58;1.38;;;;;;;22.54;53.69;96327.00;10324024;28;20400;-29
2022/08/19 01:01:03;;;;;;;1.05;0.95;;;;;;;22.49;53.86;96316.09;10328551;28;20084;-29
2022/08/19 01:06:05;;;;;;;1.35;1.10;;;;;;;22.48;53.79;96333.09;10330638;28;20026;-29
2022/08/19 01:11:07;;;;;;;1.13;1.02;;;;;;;22.49;53.84;96332.22;10327808;28;20132;-29
2022/08/19 01:16:12;;;;;;;1.65;1.40;;;;;;;22.49;53.76;96332.22;10327415;28;20031;-29
2022/08/19 01:21:21;;;;;;;1.50;1.40;;;;;;;22.61;54.10;96324.31;10328736;28;20034;-29
2022/08/19 01:26:24;;;;;;;1.50;1.40;;;;;;;22.74;53.60;96318.03;10326686;28;20038;-29
2022/08/19 01:31:30;;;;;;;1.50;1.40;;;;;;;22.64;53.80;96320.84;10326166;28;20045;-28
2022/08/19 01:36:41;;;;;;;1.47;1.37;;;;;;;22.57;53.70;96319.31;10329520;28;20076;-29
2022/08/19 01:41:42;;;;;;;1.00;1.00;;;;;;;22.52;53.74;96314.31;10322151;28;20041;-30
2022/08/19 01:46:43;;;;;;;1.48;1.38;;;;;;;22.50;53.69;96300.72;10327728;28;20378;-29
2022/08/19 01:51:44;;;;;;;1.05;1.00;;;;;;;22.39;53.91;96295.00;10327190;28;20667;-28
2022/08/19 01:56:44;;;;;;;1.50;1.40;;;;;;;22.50;53.90;96310.94;10323565;28;20046;-29
2022/08/19 02:01:44;;;;;;;1.20;1.10;;;;;;;22.47;53.92;96307.63;10326450;28;20053;-29
2022/08/19 02:06:45;;;;;;;1.60;1.50;;;;;;;22.66;54.06;96309.72;10323612;28;20030;-29
2022/08/19 02:11:45;;;;;;;1.37;1.27;;;;;;;22.76;53.48;96306.09;10326133;28;20030;-29
2022/08/19 02:16:46;;;;;;;1.47;1.37;;;;;;;22.56;53.72;96290.41;10326659;28;20053;-29
2022/08/19 02:21:46;;;;;;;1.67;1.57;;;;;;;22.54;53.69;96296.41;10325326;28;20034;-30
2022/08/19 02:26:46;;;;;;;1.30;1.20;;;;;;;22.51;53.75;96297.34;10326064;28;20031;-29
2022/08/19 02:31:47;;;;;;;1.40;1.30;;;;;;;22.50;53.73;96299.91;10324462;28;20412;-30
2022/08/19 02:36:48;;;;;;;1.40;1.20;;;;;;;22.48;53.79;96302.47;10326184;28;20038;-30
2022/08/19 02:41:49;;;;;;;1.40;1.30;;;;;;;22.47;53.86;96289.78;10327058;28;20121;-29
2022/08/19 02:46:49;;;;;;;1.25;1.15;;;;;;;22.46;53.57;96291.47;10324456;28;20057;-29
2022/08/19 02:51:50;;;;;;;1.60;1.50;;;;;;;22.66;54.02;96294.41;10324026;28;20049;-29
2022/08/19 02:56:50;;;;;;;1.40;1.30;;;;;;;22.74;53.54;96291.69;10321073;28;20039;-29
2022/08/19 03:01:50;;;;;;;1.40;1.30;;;;;;;22.61;53.64;96297.94;10323911;28;20026;-30
2022/08/19 03:06:51;;;;;;;1.10;1.10;;;;;;;22.54;53.79;96309.16;10322620;28;20036;-29
2022/08/19 03:11:52;;;;;;;1.42;1.33;;;;;;;22.52;53.76;96318.56;10324331;28;20037;-29
2022/08/19 03:16:52;;;;;;;1.00;1.00;;;;;;;22.50;53.63;96320.31;10321918;28;20117;-29
2022/08/19 03:21:53;;;;;;;1.33;1.23;;;;;;;22.48;53.94;96322.88;10322601;28;20045;-30
2022/08/19 03:26:57;;;;;;;1.20;1.10;;;;;;;22.48;53.88;96322.88;10324870;28;20045;-29
2022/08/19 03:32:00;;;;;;;1.30;1.20;;;;;;;22.47;53.92;96312.75;10323616;28;20042;-29
2022/08/19 03:37:05;;;;;;;2.42;2.22;;;;;;;22.67;54.04;96315.69;10323361;28;20402;-30
2022/08/19 03:42:06;;;;;;;1.40;1.30;;;;;;;22.73;53.58;96336.78;10324717;28;20117;-29
2022/08/19 03:47:06;;;;;;;1.17;1.10;;;;;;;22.57;53.65;96332.91;10323362;28;20030;-29
2022/08/19 03:52:07;;;;;;;2.13;1.40;;;;;;;22.53;53.76;96338.94;10320265;28;20034;-29
2022/08/19 03:57:08;;;;;;;1.10;1.05;;;;;;;22.51;53.78;96347.50;10322815;28;20614;-29
2022/08/19 04:02:11;;;;;;;1.27;1.17;;;;;;;22.47;53.78;96341.63;10319972;28;20038;-29
2022/08/19 04:07:15;;;;;;;1.25;1.15;;;;;;;22.47;53.87;96354.38;10321162;28;20031;-29
2022/08/19 04:12:16;;;;;;;1.40;1.30;;;;;;;22.46;53.94;96352.72;10323822;28;20114;-28
2022/08/19 04:17:16;;;;;;;1.60;1.50;;;;;;;22.46;54.01;96350.16;10323925;28;20044;-29
2022/08/19 04:22:18;;;;;;;2.25;2.10;;;;;;;22.66;54.01;96353.09;10330678;28;20535;-28
2022/08/19 04:27:18;;;;;;;1.40;1.30;;;;;;;22.72;53.61;96347.06;10332026;28;20034;-30
2022/08/19 04:32:18;;;;;;;1.83;1.73;;;;;;;22.57;53.78;96337.19;10329395;28;20436;-30
2022/08/19 04:37:19;;;;;;;1.40;1.30;;;;;;;22.52;53.66;96333.88;10330534;28;20544;-29
2022/08/19 04:47:40;;;;;;;1.00;1.00;;;;;;;22.48;53.89;96345.84;10327163;28;20065;-29
2022/08/19 04:52:42;;;;;;;1.67;1.50;;;;;;;22.47;53.30;96348.47;10324140;28;20046;-29
2022/08/19 04:57:42;;;;;;;1.35;1.25;;;;;;;22.46;53.89;96356.94;10330601;28;20070;-30
2022/08/19 05:02:43;;;;;;;1.60;1.50;;;;;;;22.47;54.21;96362.03;10329188;28;20093;-30
2022/08/19 05:07:43;;;;;;;2.63;2.43;;;;;;;22.68;54.34;96371.78;10320674;28;20038;-29
2022/08/19 05:12:44;;;;;;;1.60;1.50;;;;;;;22.69;53.68;96381.13;10330300;28;20296;-30
2022/08/19 05:22:31;;;;;;;1.70;1.60;;;;;;;22.57;53.79;96383.09;10328578;28;20130;-29
2022/08/19 05:23:04;;;;;;;2.08;1.92;;;;;;;22.51;53.82;96385.78;10326007;28;20409;-30
2022/08/19 05:28:05;;;;;;;1.33;1.23;;;;;;;22.48;53.89;96384.13;10328974;28;20030;-29
2022/08/19 05:33:06;;;;;;;1.65;1.40;;;;;;;22.46;53.98;96379.91;10326070;28;20038;-29
2022/08/19 05:38:08;;;;;;;1.45;1.35;;;;;;;22.44;53.94;96382.53;10329391;28;20038;-29
2022/08/19 05:43:08;;;;;;;1.40;1.30;;;;;;;22.44;53.89;96395.28;10328812;28;20034;-30
2022/08/19 05:48:11;;;;;;;2.15;1.95;;;;;;;22.48;54.32;96390.94;10325108;28;20640;-29
2022/08/19 05:53:11;;;;;;;2.65;2.45;;;;;;;22.64;53.90;96379.56;10321642;28;20117;-30
2022/08/19 05:58:12;;;;;;;1.75;1.65;;;;;;;22.66;53.82;96403.31;10327071;28;20033;-30
2022/08/19 06:03:12;;;;;;;1.83;1.73;;;;;;;22.54;53.97;96409.53;10328248;28;20118;-29
2022/08/19 06:08:13;;;;;;;1.80;1.70;;;;;;;22.49;53.77;96406.22;10325206;28;20030;-28
2022/08/19 06:13:13;;;;;;;1.40;1.30;;;;;;;22.47;53.94;96413.06;10328236;28;20132;-29
2022/08/19 06:18:14;;;;;;;1.45;1.35;;;;;;;22.46;53.88;96418.19;10326772;28;20038;-29
2022/08/19 06:23:16;;;;;;;1.40;1.30;;;;;;;22.45;53.84;96413.97;10323636;28;20034;-29
2022/08/19 06:28:16;;;;;;;1.67;1.58;;;;;;;22.44;53.98;96419.94;10327761;28;20054;-29
2022/08/19 06:33:17;;;;;;;2.30;2.10;;;;;;;22.48;54.43;96431.78;10323654;28;20196;-29
2022/08/19 06:38:17;;;;;;;2.90;2.70;;;;;;;22.68;54.43;96427.94;10326049;28;20074;-29
2022/08/19 06:43:17;;;;;;;1.40;1.30;;;;;;;22.66;53.62;96432.22;10326681;28;20038;-30
2022/08/19 06:48:18;;;;;;;1.60;1.50;;;;;;;22.55;53.83;96425.69;10325425;28;20053;-29
2022/08/19 06:53:19;;;;;;;2.05;1.80;;;;;;;22.35;53.75;96397.13;10320250;28;20304;-31
2022/08/19 06:58:19;;;;;;;1.80;1.70;;;;;;;22.48;53.99;96419.00;10325988;28;20038;-29
2022/08/19 07:03:20;;;;;;;1.83;1.73;;;;;;;22.47;53.96;96417.34;10320844;28;20054;-29
2022/08/19 07:08:21;;;;;;;1.75;1.65;;;;;;;22.46;54.00;96420.72;10322388;28;20039;-29
2022/08/19 07:13:21;;;;;;;1.93;1.70;;;;;;;22.45;53.93;96430.13;10325699;28;20183;-29
2022/08/19 07:18:22;;;;;;;2.42;2.22;;;;;;;22.50;54.33;96435.94;10318162;28;20425;-29
2022/08/19 07:23:23;;;;;;;2.97;2.78;;;;;;;22.67;54.67;96436.47;10322677;28;20037;-30
2022/08/19 07:28:23;;;;;;;2.80;2.50;;;;;;;22.66;53.78;96439.06;10324745;28;20501;-29
2022/08/19 07:33:24;;;;;;;1.92;1.73;;;;;;;22.55;53.79;96449.47;10323018;28;20424;-29
2022/08/19 07:38:24;;;;;;;1.80;1.70;;;;;;;22.50;53.82;96446.16;10324864;28;20042;-29
2022/08/19 07:43:26;;;;;;;2.00;1.90;;;;;;;22.48;53.88;96441.97;10325279;28;20524;-28
2022/08/19 07:48:28;;;;;;;1.95;1.80;;;;;;;22.41;53.80;96443.78;10321566;28;20042;-29
2022/08/19 07:53:31;;;;;;;2.05;1.90;;;;;;;22.46;54.01;96447.09;10316839;28;20046;-29
2022/08/19 07:58:34;;;;;;;2.20;2.10;;;;;;;22.45;54.08;96445.44;10324603;28;20165;-30
2022/08/19 08:14:19;;;;;;;1.63;1.52;;;;;;;22.63;53.84;96475.66;10321575;28;20093;-30
2022/08/19 08:19:21;;;;;;;2.08;1.98;;;;;;;22.54;53.90;96480.09;10323155;28;20456;-30
2022/08/19 08:24:22;;;;;;;2.10;2.00;;;;;;;22.49;53.90;96477.66;10323266;28;20039;-29
2022/08/19 08:29:22;;;;;;;1.90;1.80;;;;;;;22.47;53.89;96484.50;10323797;28;20042;-31
2022/08/19 08:34:22;;;;;;;1.77;1.67;;;;;;;22.45;54.01;96481.16;10321438;28;20037;-29
2022/08/19 08:39:23;;;;;;;1.73;1.63;;;;;;;22.45;53.86;96488.78;10323165;28;20042;-29
2022/08/19 08:44:31;;;;;;;1.63;1.53;;;;;;;22.43;53.91;96493.09;10324174;28;20030;-29
2022/08/19 08:49:43;;;;;;;2.20;2.10;;;;;;;22.53;54.18;96504.81;10317286;28;20144;-30
2022/08/19 08:54:47;;;;;;;3.22;3.03;;;;;;;22.70;54.03;96501.91;10310124;28;20034;-29
2022/08/19 08:59:51;;;;;;;2.17;1.98;;;;;;;22.63;53.73;96510.53;10322608;28;20120;-29
2022/08/19 09:04:52;;;;;;;2.40;2.20;;;;;;;22.53;53.91;96520.09;10327676;28;20049;-29
2022/08/19 09:10:03;;;;;;;2.08;1.90;;;;;;;22.45;53.80;96510.91;10326734;28;20030;-29
2022/08/19 09:15:07;;;;;;;1.92;1.83;;;;;;;22.45;53.91;96521.09;10328018;28;20054;-29
2022/08/19 09:20:23;;;;;;;1.98;1.77;;;;;;;22.45;53.84;96527.06;10327323;28;20034;-29
2022/08/19 09:25:24;;;;;;;1.50;1.40;;;;;;;22.44;53.99;96533.03;10326497;28;20420;-29
2022/08/19 09:30:28;;;;;;;2.20;2.05;;;;;;;22.44;54.03;96542.38;10329844;28;20037;-29
2022/08/19 09:35:29;;;;;;;2.08;1.98;;;;;;;22.57;54.11;96536.22;10324380;28;20133;-30
2022/08/19 09:40:30;;;;;;;2.40;2.20;;;;;;;22.70;53.93;96528.28;10329012;28;20042;-29
2022/08/19 09:45:31;;;;;;;1.98;1.88;;;;;;;22.60;53.84;96531.03;10326717;28;20424;-28
2022/08/19 09:50:33;;;;;;;2.05;1.88;;;;;;;22.51;53.74;96536.31;10329000;28;20077;-29
2022/08/19 09:55:34;;;;;;;2.65;2.45;;;;;;;22.49;54.10;96549.09;10322320;28;20042;-29
2022/08/19 10:00:37;;;;;;;2.07;1.97;;;;;;;22.48;54.03;96541.47;10326465;28;20038;-30
2022/08/19 10:05:50;;;;;;;2.80;2.60;;;;;;;22.45;53.54;96544.06;10328751;28;20046;-30
2022/08/19 10:10:50;;;;;;;2.85;2.42;;;;;;;22.47;53.79;96550.84;10325215;28;20110;-29
2022/08/19 10:15:55;;;;;;;2.70;2.50;;;;;;;22.48;54.03;96552.50;10328690;28;20409;-29
2022/08/19 10:21:08;;;;;;;2.50;2.30;;;;;;;22.61;54.10;96553.97;10322654;28;20117;-28
2022/08/19 10:26:08;;;;;;;1.80;1.70;;;;;;;22.69;53.77;96548.72;10324885;28;20038;-30
2022/08/19 10:31:19;;;;;;;1.77;1.67;;;;;;;22.57;53.74;96542.13;10323929;28;20597;-29
2022/08/19 10:36:22;;;;;;;2.30;2.10;;;;;;;22.51;53.93;96537.16;10325202;28;20061;-29
2022/08/19 10:41:24;;;;;;;1.83;1.73;;;;;;;22.49;53.98;96550.81;10326313;28;20416;-29
2022/08/19 10:46:27;;;;;;;2.47;2.28;;;;;;;22.47;54.07;96550.84;10321121;28;20124;-28
2022/08/19 10:56:52;;;;;;;3.25;2.83;;;;;;;22.48;53.84;96560.16;10321637;28;20497;-30
2022/08/19 11:01:54;;;;;;;3.40;3.10;;;;;;;22.46;54.08;96564.47;10324468;28;20038;-29
2022/08/19 11:06:55;;;;;;;2.30;2.10;;;;;;;22.63;53.90;96557.34;10323074;28;20030;-29
2022/08/19 11:11:56;;;;;;;1.75;1.65;;;;;;;22.70;53.35;96558.91;10325219;28;20042;-29
2022/08/19 11:16:56;;;;;;;1.75;1.65;;;;;;;22.56;53.77;96555.75;10319832;28;20085;-31
2022/08/19 11:21:57;;;;;;;1.90;1.80;;;;;;;22.51;54.04;96557.56;10322332;28;20042;-29
2022/08/19 11:27:08;;;;;;;2.00;1.90;;;;;;;22.47;54.21;96566.13;10324706;28;20053;-29
2022/08/19 11:32:10;;;;;;;1.83;1.73;;;;;;;22.44;54.03;96561.09;10319422;28;20042;-30
2022/08/19 11:37:10;;;;;;;1.70;1.60;;;;;;;22.42;53.72;96556.91;10324234;28;20034;-29
2022/08/19 11:47:30;;;;;;;3.20;2.90;;;;;;;22.46;54.06;96561.06;10322707;28;20120;-28
2022/08/19 11:52:31;;;;;;;3.38;3.08;;;;;;;22.63;53.41;96554.78;10317841;28;20034;-29
2022/08/19 11:57:31;;;;;;;1.70;1.60;;;;;;;22.68;53.43;96552.16;10325042;28;20030;-29
2022/08/19 12:02:32;;;;;;;2.03;1.80;;;;;;;22.55;53.81;96559.19;10322007;28;20042;-29
2022/08/19 12:07:33;;;;;;;1.90;1.80;;;;;;;22.48;53.81;96562.72;10320613;28;20604;-29
2022/08/19 12:12:33;;;;;;;2.05;1.95;;;;;;;22.47;53.83;96550.84;10324139;28;20045;-29
2022/08/19 12:17:34;;;;;;;2.40;2.20;;;;;;;22.44;53.84;96545.78;10323372;28;20889;-29
2022/08/19 12:22:35;;;;;;;2.73;1.90;;;;;;;22.42;53.88;96546.69;10320588;28;20442;-30
2022/08/19 12:27:36;;;;;;;2.38;2.17;;;;;;;22.43;54.03;96543.25;10324203;28;20476;-29
2022/08/19 12:32:37;;;;;;;3.08;2.88;;;;;;;22.45;54.11;96547.47;10320819;28;20125;-31
2022/08/19 12:37:38;;;;;;;3.00;2.80;;;;;;;22.63;54.00;96556.47;10319997;28;20038;-29
2022/08/19 12:42:42;;;;;;;1.83;1.73;;;;;;;22.70;53.39;96558.91;10331636;28;20054;-30
2022/08/19 12:47:43;;;;;;;2.00;1.90;;;;;;;22.56;53.76;96549.84;10327009;28;20507;-29
2022/08/19 12:52:43;;;;;;;1.95;1.85;;;;;;;22.50;53.82;96540.56;10325153;28;20045;-30
2022/08/19 12:57:44;;;;;;;3.13;2.93;;;;;;;22.48;53.96;96544.84;10331048;28;20109;-30
2022/08/19 13:02:46;;;;;;;2.50;2.30;;;;;;;22.45;53.88;96541.50;10330704;28;20512;-29
2022/08/19 13:07:47;;;;;;;1.77;1.67;;;;;;;22.42;54.00;96547.53;10327001;28;21306;-29
2022/08/19 13:12:50;;;;;;;2.97;2.77;;;;;;;22.43;54.09;96544.13;10330932;28;20038;-30
2022/08/19 13:17:53;;;;;;;3.88;3.58;;;;;;;22.44;54.04;96540.69;10329464;28;20684;-29
2022/08/19 13:22:54;;;;;;;3.25;2.97;;;;;;;22.62;53.98;96535.25;10328103;28;20114;-29
2022/08/19 13:27:55;;;;;;;1.90;1.80;;;;;;;22.70;53.39;96535.09;10329535;28;20108;-29
2022/08/19 13:33:10;;;;;;;1.80;1.70;;;;;;;22.60;53.64;96536.13;10329273;28;20176;-30
2022/08/19 13:38:11;;;;;;;2.97;2.77;;;;;;;22.51;53.83;96519.31;10321956;28;20062;-31
2022/08/19 13:43:12;;;;;;;3.20;2.92;;;;;;;22.48;53.92;96521.91;10329376;28;20037;-29
2022/08/19 13:48:12;;;;;;;2.80;2.60;;;;;;;22.47;53.67;96525.31;10327196;28;20039;-30
2022/08/19 13:53:12;;;;;;;3.00;2.80;;;;;;;22.46;54.04;96513.44;10322431;28;20301;-29
2022/08/19 13:58:13;;;;;;;3.13;2.93;;;;;;;22.47;53.91;96514.28;10328519;28;20088;-31
2022/08/19 14:03:13;;;;;;;3.92;3.63;;;;;;;22.45;54.08;96516.00;10324072;28;20030;-30
2022/08/19 14:08:14;;;;;;;3.42;3.08;;;;;;;22.66;54.21;96520.72;10324766;28;20041;-29
2022/08/19 14:13:17;;;;;;;2.20;2.00;;;;;;;22.73;53.76;96523.09;10328034;28;20035;-29
2022/08/19 14:18:18;;;;;;;3.05;2.85;;;;;;;22.71;53.82;96519.75;10319841;28;20648;-29
2022/08/19 14:23:19;;;;;;;3.55;3.33;;;;;;;22.68;53.81;96514.72;10325145;28;20258;-30
2022/08/19 14:28:20;;;;;;;3.75;3.50;;;;;;;22.72;53.94;96518.88;10327725;28;20033;-30
2022/08/19 14:33:20;;;;;;;3.50;3.20;;;;;;;22.73;53.91;96528.22;10325602;28;20041;-30
2022/08/19 14:38:20;;;;;;;4.33;3.40;;;;;;;22.73;53.99;96525.66;10319649;28;20042;-30
2022/08/19 14:43:21;;;;;;;3.70;3.40;;;;;;;22.73;54.05;96523.09;10326865;28;20121;-29
2022/08/19 14:48:22;;;;;;;4.05;3.75;;;;;;;22.74;53.98;96532.44;10322647;28;20523;-29
2022/08/19 14:53:22;;;;;;;3.67;3.37;;;;;;;22.83;53.97;96539.09;10320738;28;20040;-29
2022/08/19 14:58:23;;;;;;;2.20;2.03;;;;;;;22.85;53.32;96529.69;10327316;28;20372;-29
2022/08/19 15:03:23;;;;;;;3.70;3.40;;;;;;;22.79;53.77;96538.31;10324563;28;20924;-29
2022/08/19 15:08:24;;;;;;;4.63;4.22;;;;;;;22.77;53.90;96545.16;10322726;28;20513;-29
2022/08/19 15:13:27;;;;;;;3.67;3.38;;;;;;;22.77;53.85;96546.84;10325897;28;20484;-29
2022/08/19 15:18:27;;;;;;;3.75;3.45;;;;;;;22.77;53.94;96559.63;10324193;28;20038;-31
2022/08/19 15:23:28;;;;;;;3.70;3.40;;;;;;;22.76;53.96;96556.25;10321213;28;20031;-30
2022/08/19 15:28:29;;;;;;;3.53;3.22;;;;;;;22.76;53.95;96563.06;10325109;28;20030;-29
2022/08/19 15:33:37;;;;;;;3.75;3.45;;;;;;;22.75;53.99;96554.53;10323662;28;20030;-30
2022/08/19 15:38:38;;;;;;;3.80;3.50;;;;;;;22.83;53.90;96560.34;10318239;28;20045;-29
2022/08/19 15:43:41;;;;;;;2.17;2.08;;;;;;;22.81;53.10;96551.88;10324761;28;20535;-29
2022/08/19 15:48:41;;;;;;;2.60;2.40;;;;;;;22.65;53.75;96559.88;10320238;28;20034;-29
2022/08/19 15:53:42;;;;;;;2.30;2.10;;;;;;;22.55;53.83;96559.19;10318861;28;20042;-32
2022/08/19 16:09:24;;;;;;;1.90;1.80;;;;;;;22.45;54.03;96549.16;10320814;28;20060;-30
2022/08/19 16:14:24;;;;;;;1.98;1.75;;;;;;;22.43;54.14;96554.31;10328088;28;20092;-29
2022/08/19 16:19:25;;;;;;;2.30;2.10;;;;;;;22.44;54.21;96550.03;10330853;28;20452;-29
2022/08/19 16:24:27;;;;;;;3.20;3.00;;;;;;;22.64;53.82;96553.91;10329229;28;20304;-29
2022/08/19 16:29:28;;;;;;;2.28;2.15;;;;;;;22.69;53.61;96551.28;10329534;28;20089;-31
2022/08/19 16:34:29;;;;;;;2.42;2.22;;;;;;;22.52;53.78;96546.50;10331296;28;20175;-29
2022/08/19 16:39:29;;;;;;;2.25;2.15;;;;;;;22.49;53.95;96549.09;10323349;28;20046;-29
2022/08/19 16:44:30;;;;;;;3.45;3.15;;;;;;;22.44;53.97;96550.91;10331324;28;20044;-29
2022/08/19 16:49:31;;;;;;;2.22;2.03;;;;;;;22.42;54.06;96557.75;10329863;28;20030;-29
2022/08/19 16:54:31;;;;;;;1.95;1.85;;;;;;;22.42;54.07;96557.75;10325044;28;20035;-29
2022/08/19 16:59:33;;;;;;;2.57;2.37;;;;;;;22.42;54.14;96552.66;10331037;28;20044;-30
2022/08/19 17:04:33;;;;;;;2.78;2.58;;;;;;;22.42;54.22;96555.19;10327720;28;20038;-29
2022/08/19 17:09:34;;;;;;;2.80;2.60;;;;;;;22.64;53.93;96559.00;10321782;28;20029;-29
2022/08/19 17:14:34;;;;;;;2.57;2.37;;;;;;;22.67;53.76;96558.13;10328610;28;20049;-29
2022/08/19 17:19:34;;;;;;;2.43;2.23;;;;;;;22.55;53.90;96564.28;10329720;28;20038;-30
2022/08/19 17:24:36;;;;;;;2.43;2.23;;;;;;;22.48;53.85;96557.63;10326601;28;20034;-28
2022/08/19 17:29:37;;;;;;;2.70;2.50;;;;;;;22.46;53.87;96563.59;10329880;28;20041;-29
2022/08/19 17:34:38;;;;;;;2.40;2.20;;;;;;;22.44;53.91;96561.09;10324007;28;20053;-29
2022/08/19 17:39:38;;;;;;;1.90;1.80;;;;;;;22.42;54.08;96557.75;10329208;28;20483;-29
2022/08/19 17:44:39;;;;;;;2.30;2.10;;;;;;;22.42;54.05;96560.31;10329317;28;20551;-29
2022/08/19 17:49:40;;;;;;;2.70;2.50;;;;;;;22.42;54.67;96565.41;10325237;28;20285;-30
2022/08/19 17:54:40;;;;;;;3.20;2.60;;;;;;;22.64;53.90;96568.41;10323072;28;20035;-29
2022/08/19 17:59:40;;;;;;;2.25;2.05;;;;;;;22.68;53.79;96575.13;10328401;28;20112;-30
2022/08/19 18:04:41;;;;;;;2.53;2.33;;;;;;;22.54;53.70;96574.50;10323787;28;20045;-31
2022/08/19 18:09:41;;;;;;;2.50;2.30;;;;;;;22.48;53.96;96582.31;10324805;28;20293;-29
2022/08/19 18:14:42;;;;;;;2.93;2.73;;;;;;;22.44;54.09;96591.72;10325108;28;20556;-29
2022/08/19 18:19:42;;;;;;;2.47;2.27;;;;;;;22.45;53.97;96598.50;10328471;28;20030;-30
2022/08/19 18:24:42;;;;;;;3.40;3.20;;;;;;;22.47;53.82;96612.06;10325218;28;20030;-29
2022/08/19 18:29:43;;;;;;;3.50;3.20;;;;;;;22.46;54.08;96605.28;10327341;28;20084;-34
2022/08/19 18:34:44;;;;;;;3.75;3.45;;;;;;;22.35;54.27;96604.59;10324907;28;20062;-32
2022/08/19 18:50:24;;;;;;;2.22;2.10;;;;;;;22.52;54.03;96627.28;10325302;28;20042;-30
2022/08/19 18:55:28;;;;;;;2.50;2.30;;;;;;;22.46;54.01;96635.03;10320588;28;20042;-29
2022/08/19 19:00:29;;;;;;;2.78;2.58;;;;;;;22.43;54.10;96640.22;10326302;28;20547;-31
2022/08/19 19:05:30;;;;;;;2.03;1.92;;;;;;;22.44;54.22;96644.44;10324716;28;20031;-30
2022/08/19 19:10:30;;;;;;;2.77;2.57;;;;;;;22.44;54.03;96654.66;10322992;28;20504;-29
2022/08/19 19:15:31;;;;;;;3.40;3.10;;;;;;;22.44;54.13;96657.19;10323497;28;20038;-30
2022/08/19 19:20:32;;;;;;;3.70;3.40;;;;;;;22.47;54.60;96662.28;10325284;28;20065;-29
2022/08/19 19:25:33;;;;;;;2.90;2.70;;;;;;;22.65;54.05;96662.78;10322296;28;20046;-30
2022/08/19 19:30:33;;;;;;;1.90;1.80;;;;;;;22.65;53.79;96662.78;10320883;28;20034;-30
2022/08/19 19:35:34;;;;;;;2.57;2.37;;;;;;;22.55;53.94;96665.53;10325078;28;20049;-30
2022/08/19 19:40:34;;;;;;;3.00;2.80;;;;;;;22.50;54.05;96668.13;10317432;28;20466;-30
2022/08/19 19:45:35;;;;;;;3.07;2.87;;;;;;;22.48;54.04;96674.97;10324244;28;20532;-31
2022/08/19 19:50:36;;;;;;;3.78;3.47;;;;;;;22.49;53.95;96678.38;10323795;28;20068;-30
2022/08/19 19:55:36;;;;;;;3.53;3.23;;;;;;;22.48;54.10;96684.38;10317949;28;20045;-30
2022/08/19 20:00:36;;;;;;;3.50;3.20;;;;;;;22.48;54.36;96686.91;10319854;28;20035;-29
2022/08/19 20:05:37;;;;;;;3.70;3.40;;;;;;;22.47;54.50;96693.72;10324591;28;20687;-30
2022/08/19 20:10:39;;;;;;;2.83;2.63;;;;;;;22.67;54.14;96698.50;10320819;28;20801;-29
2022/08/19 20:15:42;;;;;;;2.33;2.13;;;;;;;22.67;53.84;96696.81;10320160;28;20468;-30
2022/08/19 20:20:45;;;;;;;2.22;2.05;;;;;;;22.58;53.98;96702.03;10317382;28;20525;-29
2022/08/19 20:25:45;;;;;;;3.60;3.30;;;;;;;22.54;53.95;96707.22;10320954;28;20597;-30
2022/08/19 20:30:46;;;;;;;3.23;3.00;;;;;;;22.54;54.18;96719.97;10323566;28;20049;-29
2022/08/19 20:35:46;;;;;;;3.65;3.28;;;;;;;22.52;54.13;96721.72;10319640;28;20803;-29
2022/08/19 20:40:47;;;;;;;3.40;3.10;;;;;;;22.49;54.10;96732.78;10322572;28;20038;-29
2022/08/19 20:45:47;;;;;;;3.58;3.28;;;;;;;22.48;54.09;96736.22;10318966;28;20031;-30
2022/08/19 20:50:47;;;;;;;3.77;3.47;;;;;;;22.48;54.36;96735.41;10323421;28;20125;-29
2022/08/19 20:55:48;;;;;;;3.25;2.97;;;;;;;22.66;54.17;96730.00;10317381;28;20305;-29
2022/08/19 21:00:51;;;;;;;2.15;2.05;;;;;;;22.67;53.85;96731.69;10329201;28;20066;-30
2022/08/19 21:05:53;;;;;;;2.83;2.63;;;;;;;22.55;54.07;96748.03;10328631;28;20034;-30
2022/08/19 21:10:55;;;;;;;2.53;2.33;;;;;;;22.47;53.72;96749.84;10327654;28;20169;-29
2022/08/19 21:15:56;;;;;;;2.97;2.78;;;;;;;22.48;54.03;96750.69;10327678;28;20485;-30
2022/08/19 21:20:56;;;;;;;3.20;3.00;;;;;;;22.45;54.09;96746.47;10330062;28;20030;-29
2022/08/19 21:25:58;;;;;;;3.47;3.27;;;;;;;22.44;54.24;96734.59;10327074;28;20485;-29
2022/08/19 21:30:59;;;;;;;3.65;3.35;;;;;;;22.40;54.09;96737.19;10328092;28;20038;-30
2022/08/19 21:35:59;;;;;;;3.88;3.58;;;;;;;22.45;54.48;96741.38;10330276;28;20037;-29
2022/08/19 21:41:01;;;;;;;3.20;3.00;;;;;;;22.64;54.43;96741.94;10328362;28;20100;-29
2022/08/19 21:46:02;;;;;;;2.45;2.25;;;;;;;22.64;53.95;96747.88;10325048;28;20464;-30
2022/08/19 21:51:02;;;;;;;2.80;2.60;;;;;;;22.53;54.08;96748.91;10330037;28;20169;-29
2022/08/19 21:56:05;;;;;;;3.08;2.88;;;;;;;22.48;54.14;96751.53;10322775;28;20037;-29
2022/08/19 22:01:06;;;;;;;3.08;2.88;;;;;;;22.47;54.13;96762.59;10327220;28;20039;-29
2022/08/19 22:06:08;;;;;;;3.60;3.30;;;;;;;22.46;54.25;96758.38;10328558;28;20022;-29
2022/08/19 22:11:08;;;;;;;3.33;3.13;;;;;;;22.45;54.25;96766.91;10324853;28;20475;-29
2022/08/19 22:16:09;;;;;;;3.80;3.50;;;;;;;22.44;54.25;96760.09;10324220;28;20089;-29
2022/08/19 22:21:09;;;;;;;3.67;3.38;;;;;;;22.44;54.51;96764.34;10328049;28;20034;-30
2022/08/19 22:26:11;;;;;;;3.80;3.50;;;;;;;22.60;54.64;96756.47;10324800;28;20492;-30
2022/08/19 22:31:12;;;;;;;2.33;2.15;;;;;;;22.65;53.67;96754.66;10323583;28;20661;-29
2022/08/19 22:36:13;;;;;;;2.50;2.33;;;;;;;22.54;54.05;96748.91;10326964;28;20034;-30
2022/08/19 22:41:15;;;;;;;2.97;2.78;;;;;;;22.49;54.08;96752.38;10319491;28;20335;-29
2022/08/19 22:46:19;;;;;;;2.90;2.70;;;;;;;22.44;54.20;96755.00;10324342;28;20037;-29
2022/08/19 22:56:38;;;;;;;2.90;2.70;;;;;;;22.35;54.20;96746.59;10321366;28;20108;-29
2022/08/19 23:01:40;;;;;;;3.00;2.65;;;;;;;22.35;54.21;96750.00;10322395;28;20092;-29
2022/08/19 23:06:40;;;;;;;3.45;3.15;;;;;;;22.36;54.10;96750.84;10325527;28;20037;-33
2022/08/19 23:11:41;;;;;;;3.60;3.30;;;;;;;22.63;54.68;96763.19;10324215;28;20045;-32
2022/08/19 23:16:41;;;;;;;2.23;2.10;;;;;;;22.62;53.90;96752.16;10324716;28;20038;-29
2022/08/19 23:21:42;;;;;;;3.08;2.88;;;;;;;22.50;53.94;96749.78;10324198;28;20524;-32
2022/08/19 23:30:24;;;;;;;2.63;2.42;;;;;;;22.46;54.09;96737.97;10322679;28;20386;-31
2022/08/19 23:32:05;;;;;;;2.70;2.50;;;;;;;22.43;54.14;96727.81;10320588;28;20404;-29
2022/08/19 23:37:06;;;;;;;2.90;2.70;;;;;;;22.42;54.13;96735.47;10320587;28;20038;-29
2022/08/19 23:42:10;;;;;;;3.08;2.88;;;;;;;22.41;54.24;96736.34;10321584;28;20046;-29
2022/08/19 23:47:11;;;;;;;3.03;2.83;;;;;;;22.39;54.28;96731.22;10323137;28;20041;-31
2022/08/19 23:52:11;;;;;;;3.13;2.87;;;;;;;22.42;54.63;96730.38;10320345;28;20049;-29
2022/08/19 23:57:11;;;;;;;3.60;3.30;;;;;;;22.63;54.47;96720.66;10321830;28;20396;-29
